createdAt,value
2018-11-26T00:00:47.949Z,20.80
2018-11-26T00:03:16.741Z,22.52
2018-11-26T00:05:45.429Z,28.85
2018-11-26T00:08:14.211Z,31.73
2018-11-26T00:10:53.870Z,33.08
2018-11-26T00:13:22.546Z,32.35
2018-11-26T00:15:51.415Z,31.35
2018-11-26T00:18:20.133Z,30.55
2018-11-26T00:20:48.854Z,20.72
2018-11-26T00:23:17.664Z,24.43
2018-11-26T00:25:46.396Z,20.80
2018-11-26T00:28:15.123Z,20.82
2018-11-26T00:30:43.854Z,21.85
2018-11-26T00:33:12.594Z,18.25
2018-11-26T00:35:41.262Z,17.67
2018-11-26T00:38:09.919Z,16.20
2018-11-26T00:40:39.142Z,19.37
2018-11-26T00:43:07.772Z,17.30
2018-11-26T00:45:36.543Z,21.62
2018-11-26T00:48:06.106Z,16.27
2018-11-26T00:50:34.753Z,19.00
2018-11-26T00:53:03.373Z,17.30
2018-11-26T00:55:31.973Z,20.27
2018-11-26T00:58:00.558Z,19.12
2018-11-26T01:00:29.210Z,16.32
2018-11-26T01:02:57.846Z,16.27
2018-11-26T01:05:35.500Z,18.50
2018-11-26T01:08:04.349Z,17.73
2018-11-26T01:10:33.098Z,17.42
2018-11-26T01:13:01.790Z,16.23
2018-11-26T01:15:30.508Z,20.25
2018-11-26T01:17:59.139Z,16.35
2018-11-26T01:20:27.883Z,16.75
2018-11-26T01:22:56.595Z,18.57
2018-11-26T01:25:25.271Z,15.50
2018-11-26T01:27:54.046Z,18.42
2018-11-26T01:30:22.783Z,16.30
2018-11-26T01:32:51.444Z,18.05
2018-11-26T01:35:20.112Z,17.40
2018-11-26T01:37:48.850Z,16.50
2018-11-26T01:40:21.088Z,18.27
2018-11-26T01:42:50.229Z,15.80
2018-11-26T01:45:18.909Z,16.42
2018-11-26T01:47:47.618Z,20.00
2018-11-26T01:50:16.275Z,15.32
2018-11-26T01:52:44.946Z,14.78
2018-11-26T01:55:13.642Z,14.30
2018-11-26T01:57:42.266Z,14.18
2018-11-26T02:00:17.387Z,18.55
2018-11-26T02:02:46.142Z,15.48
2018-11-26T02:05:14.829Z,14.10
2018-11-26T02:07:43.573Z,14.83
2018-11-26T02:10:15.015Z,12.63
2018-11-26T02:12:43.810Z,15.53
2018-11-26T02:15:13.697Z,14.20
2018-11-26T02:17:42.378Z,16.32
2018-11-26T02:20:11.466Z,13.83
2018-11-26T02:22:40.210Z,15.35
2018-11-26T02:25:09.454Z,14.28
2018-11-26T02:27:38.097Z,16.37
2018-11-26T02:30:08.481Z,20.12
2018-11-26T02:32:37.130Z,14.40
2018-11-26T02:35:06.346Z,14.45
2018-11-26T02:37:35.085Z,15.78
2018-11-26T02:40:03.807Z,17.95
2018-11-26T02:42:32.528Z,14.35
2018-11-26T02:45:01.179Z,16.30
2018-11-26T02:47:29.862Z,14.78
2018-11-26T02:49:58.550Z,13.68
2018-11-26T02:52:27.241Z,18.60
2018-11-26T02:54:55.937Z,15.43
2018-11-26T02:57:24.606Z,14.98
2018-11-26T02:59:53.310Z,17.12
2018-11-26T03:02:21.997Z,16.48
2018-11-26T03:04:50.669Z,15.20
2018-11-26T03:07:19.402Z,16.42
2018-11-26T03:09:48.055Z,15.65
2018-11-26T03:12:16.742Z,17.32
2018-11-26T03:14:45.434Z,17.10
2018-11-26T03:17:14.098Z,18.85
2018-11-26T03:19:42.803Z,17.57
2018-11-26T03:22:11.541Z,18.25
2018-11-26T03:24:40.162Z,16.35
2018-11-26T03:27:08.814Z,14.68
2018-11-26T03:29:37.420Z,15.28
2018-11-26T03:32:06.049Z,15.60
2018-11-26T03:34:34.683Z,17.12
2018-11-26T03:37:03.330Z,16.55
2018-11-26T03:39:31.954Z,16.55
2018-11-26T03:42:00.629Z,16.93
2018-11-26T03:44:29.335Z,16.42
2018-11-26T03:46:57.970Z,16.30
2018-11-26T03:49:26.713Z,15.75
2018-11-26T03:51:55.383Z,18.27
2018-11-26T03:54:23.977Z,19.60
2018-11-26T03:56:52.602Z,17.05
2018-11-26T03:59:21.264Z,16.02
2018-11-26T04:01:49.869Z,17.17
2018-11-26T04:04:18.454Z,19.00
2018-11-26T04:06:47.102Z,17.70
2018-11-26T04:09:15.783Z,16.45
2018-11-26T04:11:44.460Z,17.87
2018-11-26T04:14:13.068Z,17.07
2018-11-26T04:16:41.722Z,17.52
2018-11-26T04:19:10.396Z,16.07
2018-11-26T04:21:39.026Z,15.50
2018-11-26T04:24:07.643Z,15.95
2018-11-26T04:26:36.324Z,18.15
2018-11-26T04:29:05.083Z,16.70
2018-11-26T04:31:33.722Z,18.42
2018-11-26T04:34:02.350Z,19.92
2018-11-26T04:36:30.958Z,15.68
2018-11-26T04:38:59.575Z,16.55
2018-11-26T04:41:28.170Z,16.45
2018-11-26T04:43:56.796Z,16.80
2018-11-26T04:46:25.483Z,19.92
2018-11-26T04:48:54.147Z,18.42
2018-11-26T04:51:22.750Z,17.50
2018-11-26T04:53:51.361Z,18.27
2018-11-26T04:56:20.004Z,25.05
2018-11-26T04:58:48.641Z,29.23
2018-11-26T05:01:17.298Z,29.05
2018-11-26T05:03:45.909Z,32.30
2018-11-26T05:06:14.587Z,28.62
2018-11-26T05:08:43.244Z,28.05
2018-11-26T05:11:11.864Z,16.17
2018-11-26T05:13:40.510Z,23.12
2018-11-26T05:16:09.133Z,26.95
2018-11-26T05:18:37.755Z,27.62
2018-11-26T05:21:06.577Z,23.15
2018-11-26T05:23:35.182Z,20.25
2018-11-26T05:26:03.826Z,22.27
2018-11-26T05:28:32.431Z,23.55
2018-11-26T05:31:01.049Z,21.17
2018-11-26T05:33:29.665Z,20.15
2018-11-26T05:35:58.309Z,19.55
2018-11-26T05:38:26.937Z,21.70
2018-11-26T05:40:55.720Z,20.40
2018-11-26T05:43:24.321Z,22.13
2018-11-26T05:45:52.991Z,24.77
2018-11-26T05:48:21.678Z,25.55
2018-11-26T05:50:50.334Z,28.38
2018-11-26T05:53:18.976Z,32.95
2018-11-26T05:55:47.683Z,34.08
2018-11-26T05:58:16.322Z,31.90
2018-11-26T06:00:45.025Z,30.27
2018-11-26T06:03:13.763Z,26.23
2018-11-26T06:05:42.622Z,31.02
2018-11-26T06:08:11.316Z,30.30
2018-11-26T06:10:39.924Z,46.40
2018-11-26T06:13:08.542Z,21.33
2018-11-26T06:15:37.186Z,26.00
2018-11-26T06:18:06.020Z,21.10
2018-11-26T06:20:34.702Z,20.97
2018-11-26T06:23:03.364Z,19.07
2018-11-26T06:25:32.015Z,20.02
2018-11-26T06:28:00.617Z,16.55
2018-11-26T06:30:29.266Z,20.43
2018-11-26T06:32:57.949Z,22.40
2018-11-26T06:35:26.644Z,20.68
2018-11-26T06:37:55.242Z,18.45
2018-11-26T06:40:23.850Z,16.70
2018-11-26T06:42:52.668Z,18.52
2018-11-26T06:45:22.529Z,20.90
2018-11-26T06:47:51.298Z,21.75
2018-11-26T06:50:20.675Z,22.60
2018-11-26T06:52:49.364Z,22.60
2018-11-26T06:55:19.054Z,21.77
2018-11-26T06:57:47.704Z,21.02
2018-11-26T07:00:17.674Z,22.82
2018-11-26T07:02:46.297Z,25.23
2018-11-26T07:05:17.777Z,23.18
2018-11-26T07:07:46.461Z,25.55
2018-11-26T07:10:15.456Z,29.50
2018-11-26T07:12:44.155Z,26.97
2018-11-26T07:15:17.650Z,29.35
2018-11-26T07:17:46.303Z,26.57
2018-11-26T07:20:17.297Z,30.17
2018-11-26T07:22:46.478Z,26.00
2018-11-26T07:25:16.188Z,26.10
2018-11-26T07:27:46.058Z,25.50
2018-11-26T07:30:24.569Z,27.45
2018-11-26T07:32:53.646Z,30.62
2018-11-26T07:35:22.575Z,25.55
2018-11-26T07:37:51.555Z,28.12
2018-11-26T07:40:22.714Z,28.67
2018-11-26T07:42:58.004Z,29.67
2018-11-26T07:45:27.127Z,27.82
2018-11-26T07:47:56.677Z,27.95
2018-11-26T07:50:25.733Z,28.73
2018-11-26T07:52:54.734Z,29.95
2018-11-26T07:55:23.582Z,27.05
2018-11-26T07:57:52.553Z,24.65
2018-11-26T08:00:22.390Z,24.02
2018-11-26T08:02:51.792Z,24.65
2018-11-26T08:05:21.823Z,27.73
2018-11-26T08:07:50.778Z,24.05
2018-11-26T08:10:21.566Z,26.75
2018-11-26T08:12:51.410Z,25.48
2018-11-26T08:15:22.592Z,25.35
2018-11-26T08:17:51.043Z,30.70
2018-11-26T08:20:20.072Z,24.85
2018-11-26T08:22:50.076Z,24.05
2018-11-26T08:25:20.411Z,28.20
2018-11-26T08:27:49.886Z,24.52
2018-11-26T08:30:22.302Z,27.42
2018-11-26T08:32:55.102Z,23.35
2018-11-26T08:35:23.842Z,32.48
2018-11-26T08:37:57.657Z,24.98
2018-11-26T08:40:30.291Z,23.52
2018-11-26T08:43:15.624Z,27.75
2018-11-26T08:45:52.491Z,31.12
2018-11-26T08:48:31.124Z,28.55
2018-11-26T08:51:01.937Z,25.30
2018-11-26T08:53:30.788Z,28.95
2018-11-26T08:55:59.486Z,31.77
2018-11-26T08:58:28.114Z,25.65
2018-11-26T09:01:01.833Z,25.10
2018-11-26T09:03:35.627Z,27.07
2018-11-26T09:06:04.926Z,26.00
2018-11-26T09:08:34.691Z,31.48
2018-11-26T09:11:03.986Z,32.00
2018-11-26T09:13:32.828Z,31.52
2018-11-26T09:16:01.561Z,31.75
2018-11-26T09:18:30.207Z,29.35
2018-11-26T09:20:58.870Z,30.30
2018-11-26T09:23:27.622Z,28.95
2018-11-26T09:25:56.310Z,26.42
2018-11-26T09:28:25.019Z,32.05
2018-11-26T09:30:53.687Z,33.92
2018-11-26T09:33:22.315Z,30.92
2018-11-26T09:35:51.050Z,36.80
2018-11-26T09:38:19.751Z,37.45
2018-11-26T09:40:48.494Z,37.73
2018-11-26T09:43:17.165Z,35.70
2018-11-26T09:45:45.884Z,27.35
2018-11-26T09:48:14.494Z,26.62
2018-11-26T09:50:43.182Z,26.60
2018-11-26T09:53:11.858Z,24.37
2018-11-26T09:55:40.498Z,27.30
2018-11-26T09:58:09.272Z,27.80
2018-11-26T10:00:37.926Z,28.38
2018-11-26T10:03:06.660Z,26.40
2018-11-26T10:05:35.286Z,27.93
2018-11-26T10:08:04.020Z,26.40
2018-11-26T10:10:32.738Z,29.00
2018-11-26T10:13:01.431Z,31.62
2018-11-26T10:15:30.125Z,27.10
2018-11-26T10:17:58.768Z,32.17
2018-11-26T10:20:27.375Z,29.37
2018-11-26T10:22:56.093Z,28.15
2018-11-26T10:25:24.750Z,30.15
2018-11-26T10:27:53.650Z,31.25
2018-11-26T10:30:23.534Z,29.23
2018-11-26T10:32:52.830Z,31.07
2018-11-26T10:35:21.827Z,27.13
2018-11-26T10:37:50.530Z,28.40
2018-11-26T10:40:24.737Z,32.73
2018-11-26T10:42:53.455Z,28.25
2018-11-26T10:45:23.011Z,28.90
2018-11-26T10:47:51.706Z,29.00
2018-11-26T10:50:21.747Z,29.95
2018-11-26T10:52:52.377Z,28.57
2018-11-26T10:55:24.178Z,34.55
2018-11-26T10:57:52.804Z,33.45
2018-11-26T11:00:26.561Z,30.30
2018-11-26T11:02:55.399Z,28.92
2018-11-26T11:05:23.952Z,30.60
2018-11-26T11:07:52.848Z,33.15
2018-11-26T11:10:22.583Z,30.37
2018-11-26T11:12:51.325Z,27.55
2018-11-26T11:15:20.043Z,30.95
2018-11-26T11:17:48.642Z,33.40
2018-11-26T11:20:19.321Z,27.45
2018-11-26T11:22:48.074Z,29.98
2018-11-26T11:25:17.378Z,29.07
2018-11-26T11:27:46.158Z,28.30
2018-11-26T11:30:17.446Z,28.70
2018-11-26T11:32:46.193Z,28.63
2018-11-26T11:35:15.305Z,30.47
2018-11-26T11:37:44.762Z,30.60
2018-11-26T11:40:19.508Z,30.93
2018-11-26T11:42:48.564Z,35.63
2018-11-26T11:45:17.290Z,32.50
2018-11-26T11:47:45.937Z,27.43
2018-11-26T11:50:15.734Z,28.40
2018-11-26T11:52:44.414Z,34.20
2018-11-26T11:55:13.974Z,28.87
2018-11-26T11:57:42.727Z,28.93
2018-11-26T12:00:24.251Z,32.63
2018-11-26T12:02:52.835Z,29.37
2018-11-26T12:05:22.012Z,29.63
2018-11-26T12:07:50.579Z,30.37
2018-11-26T12:10:19.249Z,29.50
2018-11-26T12:12:47.923Z,31.07
2018-11-26T12:15:17.185Z,32.33
2018-11-26T12:17:46.555Z,29.50
2018-11-26T12:20:15.723Z,28.40
2018-11-26T12:22:44.747Z,26.67
2018-11-26T12:25:17.336Z,30.07
2018-11-26T12:27:47.074Z,29.90
2018-11-26T12:30:19.031Z,33.90
2018-11-26T12:32:47.653Z,30.83
2018-11-26T12:35:16.327Z,32.30
2018-11-26T12:37:44.903Z,29.47
2018-11-26T12:40:14.909Z,31.37
2018-11-26T12:42:43.592Z,30.23
2018-11-26T12:45:20.393Z,28.73
2018-11-26T12:47:49.051Z,29.80
2018-11-26T12:50:18.637Z,28.40
2018-11-26T12:52:47.291Z,29.67
2018-11-26T12:55:17.823Z,28.87
2018-11-26T12:57:47.225Z,30.23
2018-11-26T13:00:19.895Z,29.47
2018-11-26T13:02:52.527Z,34.20
2018-11-26T13:05:21.350Z,29.80
2018-11-26T13:07:49.987Z,28.70
2018-11-26T13:10:19.983Z,33.13
2018-11-26T13:12:49.223Z,33.27
2018-11-26T13:15:18.821Z,31.90
2018-11-26T13:17:47.445Z,31.07
2018-11-26T13:20:21.527Z,31.07
2018-11-26T13:22:50.598Z,38.83
2018-11-26T13:25:20.409Z,29.93
2018-11-26T13:27:51.851Z,30.40
2018-11-26T13:30:22.525Z,30.67
2018-11-26T13:32:54.457Z,32.03
2018-11-26T13:35:23.123Z,34.27
2018-11-26T13:37:51.757Z,33.60
2018-11-26T13:40:20.979Z,34.13
2018-11-26T13:42:49.922Z,32.43
2018-11-26T13:45:20.911Z,30.93
2018-11-26T13:47:49.572Z,28.93
2018-11-26T13:50:23.480Z,31.70
2018-11-26T13:52:52.223Z,31.93
2018-11-26T13:55:20.970Z,35.60
2018-11-26T13:57:49.596Z,33.00
2018-11-26T14:00:18.385Z,29.80
2018-11-26T14:02:47.019Z,30.30
2018-11-26T14:05:16.659Z,33.73
2018-11-26T14:07:45.612Z,32.73
2018-11-26T14:10:19.344Z,31.73
2018-11-26T14:13:18.663Z,33.77
2018-11-26T14:15:47.312Z,31.63
2018-11-26T14:18:15.988Z,31.57
2018-11-26T14:20:44.574Z,34.57
2018-11-26T14:23:13.329Z,34.00
2018-11-26T14:25:41.979Z,30.97
2018-11-26T14:28:10.600Z,30.23
2018-11-26T14:30:39.213Z,29.37
2018-11-26T14:33:07.888Z,33.97
2018-11-26T14:35:36.558Z,30.77
2018-11-26T14:38:06.914Z,32.30
2018-11-26T14:40:37.164Z,32.30
2018-11-26T14:43:05.847Z,30.70
2018-11-26T14:45:34.511Z,28.93
2018-11-26T14:48:03.166Z,28.23
2018-11-26T14:50:31.794Z,31.77
2018-11-26T14:53:03.580Z,26.57
2018-11-26T14:55:33.037Z,26.40
2018-11-26T14:58:01.626Z,25.80
2018-11-26T15:00:30.201Z,29.03
2018-11-26T15:02:58.879Z,31.03
2018-11-26T15:05:27.605Z,32.60
2018-11-26T15:07:56.223Z,29.10
2018-11-26T15:10:25.484Z,33.70
2018-11-26T15:12:54.092Z,35.93
2018-11-26T15:15:24.455Z,35.03
2018-11-26T15:17:53.114Z,37.90
2018-11-26T15:20:22.845Z,32.20
2018-11-26T15:22:52.147Z,31.67
2018-11-26T15:25:35.275Z,35.30
2018-11-26T15:28:08.942Z,34.63
2018-11-26T15:30:37.645Z,32.20
2018-11-26T15:33:06.524Z,37.10
2018-11-26T15:35:35.455Z,32.97
2018-11-26T15:38:04.147Z,35.53
2018-11-26T15:40:32.839Z,31.67
2018-11-26T15:43:01.532Z,34.97
2018-11-26T15:45:30.343Z,33.40
2018-11-26T15:48:02.126Z,33.40
2018-11-26T15:50:30.821Z,28.57
2018-11-26T15:52:59.491Z,33.23
2018-11-26T15:55:28.194Z,30.80
2018-11-26T15:57:56.935Z,31.80
2018-11-26T16:00:26.332Z,32.43
2018-11-26T16:02:55.084Z,33.90
2018-11-26T16:05:25.876Z,30.23
2018-11-26T16:07:55.620Z,37.17
2018-11-26T16:10:24.408Z,29.30
2018-11-26T16:12:54.707Z,32.00
2018-11-26T16:15:24.897Z,30.63
2018-11-26T16:17:54.304Z,28.13
2018-11-26T16:20:25.240Z,36.50
2018-11-26T16:22:54.048Z,34.50
2018-11-26T16:25:23.688Z,36.90
2018-11-26T16:27:52.500Z,30.20
2018-11-26T16:30:21.232Z,36.23
2018-11-26T16:32:53.077Z,32.30
2018-11-26T16:35:23.951Z,34.13
2018-11-26T16:37:52.589Z,35.87
2018-11-26T16:40:21.332Z,37.80
2018-11-26T16:42:50.052Z,41.97
2018-11-26T16:45:19.722Z,47.30
2018-11-26T16:47:50.603Z,47.88
2018-11-26T16:50:20.248Z,56.03
2018-11-26T16:52:48.892Z,65.17
2018-11-26T16:55:17.958Z,65.43
2018-11-26T16:57:46.768Z,72.27
2018-11-26T17:00:19.452Z,66.65
2018-11-26T17:02:49.065Z,55.53
2018-11-26T17:05:23.044Z,50.50
2018-11-26T17:07:51.671Z,55.30
2018-11-26T17:10:20.356Z,47.43
2018-11-26T17:12:49.020Z,42.23
2018-11-26T17:15:18.476Z,42.30
2018-11-26T17:17:47.283Z,40.75
2018-11-26T17:20:16.788Z,44.15
2018-11-26T17:22:45.575Z,42.23
2018-11-26T17:25:15.339Z,55.83
2018-11-26T17:27:44.543Z,47.07
2018-11-26T17:30:20.091Z,49.35
2018-11-26T17:32:50.008Z,48.02
2018-11-26T17:35:18.797Z,51.33
2018-11-26T17:37:47.482Z,45.15
2018-11-26T17:40:18.099Z,43.17
2018-11-26T17:42:46.808Z,50.45
2018-11-26T17:45:16.000Z,48.20
2018-11-26T17:47:46.952Z,99.77
2018-11-26T17:50:18.047Z,91.08
2018-11-26T17:52:46.745Z,64.62
2018-11-26T17:55:15.433Z,55.67
2018-11-26T17:57:44.161Z,62.17
2018-11-26T18:00:16.240Z,60.75
2018-11-26T18:02:45.536Z,59.18
2018-11-26T18:05:20.174Z,83.95
2018-11-26T18:07:50.859Z,69.90
2018-11-26T18:10:19.566Z,60.08
2018-11-26T18:12:48.230Z,62.17
2018-11-26T18:15:16.956Z,58.65
2018-11-26T18:20:14.638Z,55.90
2018-11-26T18:22:44.131Z,52.85
2018-11-26T18:25:13.082Z,54.10
2018-11-26T18:27:44.690Z,53.13
2018-11-26T18:30:16.409Z,59.93
2018-11-26T18:32:45.123Z,47.17
2018-11-26T18:35:13.993Z,53.13
2018-11-26T18:37:42.701Z,49.70
2018-11-26T18:40:13.067Z,47.33
2018-11-26T18:42:41.729Z,45.23
2018-11-26T18:45:13.945Z,44.15
2018-11-26T18:47:42.674Z,48.48
2018-11-26T18:50:19.231Z,45.00
2018-11-26T18:52:48.643Z,41.50
2018-11-26T18:55:17.391Z,42.45
2018-11-26T18:57:46.200Z,40.65
2018-11-26T19:00:22.879Z,48.90
2018-11-26T19:02:52.192Z,44.42
2018-11-26T19:05:21.170Z,45.63
2018-11-26T19:07:50.949Z,47.65
2018-11-26T19:10:21.411Z,51.60
2018-11-26T19:12:51.930Z,47.20
2018-11-26T19:15:23.349Z,50.33
2018-11-26T19:17:53.300Z,49.25
2018-11-26T19:20:21.986Z,49.40
2018-11-26T19:22:50.697Z,42.83
2018-11-26T19:25:19.682Z,39.13
2018-11-26T19:27:48.401Z,34.10
2018-11-26T19:30:17.094Z,33.13
2018-11-26T19:32:46.311Z,34.33
2018-11-26T19:35:15.771Z,31.30
2018-11-26T19:37:44.513Z,36.25
2018-11-26T19:40:14.223Z,34.92
2018-11-26T19:42:45.199Z,37.08
2018-11-26T19:45:14.961Z,38.10
2018-11-26T19:47:43.747Z,31.90
2018-11-26T19:50:13.666Z,31.62
2018-11-26T19:52:42.435Z,30.35
2018-11-26T19:55:14.318Z,32.28
2018-11-26T19:57:43.025Z,28.20
2018-11-26T20:00:20.142Z,34.83
2018-11-26T20:02:54.329Z,31.93
2018-11-26T20:05:26.151Z,38.13
2018-11-26T20:07:54.884Z,33.65
2018-11-26T20:10:23.647Z,37.60
2018-11-26T20:12:52.415Z,39.10
2018-11-26T20:15:21.126Z,37.67
2018-11-26T20:17:50.734Z,39.15
2018-11-26T20:20:18.774Z,35.03
2018-11-26T20:22:47.505Z,33.88
2018-11-26T20:25:16.296Z,37.08
2018-11-26T20:27:45.025Z,30.45
2018-11-26T20:30:14.806Z,30.70
2018-11-26T20:32:45.024Z,29.30
2018-11-26T20:35:13.968Z,35.10
2018-11-26T20:37:42.700Z,26.07
2018-11-26T20:40:15.478Z,26.95
2018-11-26T20:42:48.169Z,26.97
2018-11-26T20:45:17.140Z,25.00
2018-11-26T20:47:46.678Z,30.23
2018-11-26T20:50:17.074Z,26.37
2018-11-26T20:52:45.834Z,21.23
2018-11-26T20:55:18.460Z,24.20
2018-11-26T20:57:47.790Z,28.60
2018-11-26T21:00:17.815Z,25.35
2018-11-26T21:02:47.693Z,31.97
2018-11-26T21:05:16.468Z,25.10
2018-11-26T21:07:45.173Z,27.55
2018-11-26T21:10:14.691Z,28.40
2018-11-26T21:12:43.480Z,27.20
2018-11-26T21:15:18.207Z,30.82
2018-11-26T21:17:49.939Z,37.25
2018-11-26T21:20:20.323Z,32.93
2018-11-26T21:22:49.046Z,23.50
2018-11-26T21:25:18.114Z,24.00
2018-11-26T21:27:46.802Z,27.70
2018-11-26T21:30:17.504Z,25.45
2018-11-26T21:32:46.240Z,22.30
2018-11-26T21:35:16.100Z,21.48
2018-11-26T21:37:45.979Z,17.82
2018-11-26T21:40:20.350Z,23.27
2018-11-26T21:42:44.650Z,24.18
2018-11-26T21:45:14.734Z,24.32
2018-11-26T21:47:43.446Z,23.87
2018-11-26T21:50:13.334Z,22.82
2018-11-26T21:52:42.084Z,26.30
2018-11-26T21:55:13.861Z,23.42
2018-11-26T21:57:42.678Z,22.87
2018-11-26T22:00:23.542Z,27.22
2018-11-26T22:02:52.387Z,36.03
2018-11-26T22:05:21.135Z,28.40
2018-11-26T22:07:49.866Z,23.83
2018-11-26T22:10:21.450Z,24.47
2018-11-26T22:12:52.128Z,25.70
2018-11-26T22:15:20.883Z,25.50
2018-11-26T22:17:49.590Z,25.32
2018-11-26T22:20:24.418Z,25.05
2018-11-26T22:22:53.141Z,20.77
2018-11-26T22:25:21.878Z,25.45
2018-11-26T22:27:50.677Z,20.35
2018-11-26T22:30:20.499Z,25.60
2018-11-26T22:32:49.250Z,26.05
2018-11-26T22:35:17.997Z,25.82
2018-11-26T22:37:46.769Z,27.82
2018-11-26T22:40:21.407Z,24.40
2018-11-26T22:42:50.061Z,26.05
2018-11-26T22:45:28.150Z,24.40
2018-11-26T22:48:00.183Z,22.00
2018-11-26T22:50:28.875Z,22.37
2018-11-26T22:52:57.605Z,22.75
2018-11-26T22:55:26.290Z,26.87
2018-11-26T22:57:54.966Z,27.15
2018-11-26T23:00:35.398Z,25.10
2018-11-26T23:03:04.148Z,25.48
2018-11-26T23:05:32.914Z,24.95
2018-11-26T23:08:01.582Z,29.07
2018-11-26T23:10:30.241Z,25.72
2018-11-26T23:12:58.913Z,22.42
2018-11-26T23:15:27.600Z,28.52
2018-11-26T23:17:56.269Z,25.43
2018-11-26T23:20:24.959Z,22.25
2018-11-26T23:22:53.652Z,22.73
2018-11-26T23:25:22.330Z,24.82
2018-11-26T23:27:51.022Z,25.52
2018-11-26T23:30:26.801Z,26.90
2018-11-26T23:33:00.697Z,24.47
2018-11-26T23:35:29.430Z,21.42
2018-11-26T23:37:58.135Z,26.73
2018-11-26T23:40:26.840Z,24.77
2018-11-26T23:42:55.519Z,27.13
2018-11-26T23:45:25.123Z,23.95
2018-11-26T23:47:53.822Z,24.92
2018-11-26T23:50:22.509Z,21.25
2018-11-26T23:52:51.166Z,21.00
2018-11-26T23:55:21.879Z,22.00
2018-11-26T23:57:50.608Z,20.82
